Time;durP1;ratioP1;P1;durP2;ratioP2;P2;SDS_P1;SDS_P2;PMS_P1;PMS_P2;Temp;Humidity;BMP_temperature;BMP_pressure;BME280_temperature;BME280_humidity;BME280_pressure;Samples;Min_cycle;Max_cycle;Signal;HPM_P1;HPM_P2
2022/12/15 00:39:58;;;;;;;;;80.67;56.00;;;;;;;;5053771;28;45453;-74
2022/12/15 00:42:27;;;;;;;;;65.67;51.00;;;;;;;;5056269;28;45074;-74
2022/12/15 00:44:53;;;;;;;;;68.00;55.00;;;;;;;;5046628;28;45411;-74
2022/12/15 00:47:18;;;;;;;;;66.33;51.00;;;;;;;;5055485;28;45404;-74
2022/12/15 01:22:35;;;;;;;;;72.67;55.00;;;;;;;;5061010;28;45222;-74
2022/12/15 01:25:00;;;;;;;;;76.67;61.00;;;;;;;;5043504;28;45599;-74
2022/12/15 01:27:25;;;;;;;;;69.67;52.00;;;;;;;;5059384;28;45337;-74
2022/12/15 01:29:50;;;;;;;;;74.67;56.33;;;;;;;;5057890;28;45296;-73
2022/12/15 01:32:15;;;;;;;;;78.67;57.67;;;;;;;;5059729;28;45276;-74
2022/12/15 01:34:41;;;;;;;;;66.00;54.33;;;;;;;;5056015;28;45419;-74
2022/12/15 01:37:06;;;;;;;;;74.00;57.33;;;;;;;;5059525;28;45269;-74
2022/12/15 01:40:43;;;;;;;;;68.67;55.00;;;;;;;;5057435;28;44833;-74
2022/12/15 01:42:16;;;;;;;;;73.00;54.67;;;;;;;;5058913;28;45341;-74
2022/12/15 01:44:43;;;;;;;;;75.33;55.33;;;;;;;;5040876;28;47129;-74
2022/12/15 01:47:11;;;;;;;;;75.67;55.67;;;;;;;;5059210;28;45918;-73
2022/12/15 01:49:37;;;;;;;;;65.00;47.67;;;;;;;;5055519;28;45347;-74
2022/12/15 01:52:04;;;;;;;;;71.00;54.00;;;;;;;;5059640;28;45257;-74
2022/12/15 01:54:35;;;;;;;;;69.67;52.00;;;;;;;;5055364;28;45512;-73
2022/12/15 01:57:07;;;;;;;;;68.67;55.00;;;;;;;;5059043;28;45435;-74
2022/12/15 01:59:37;;;;;;;;;68.00;56.00;;;;;;;;5040468;28;45463;-73
2022/12/15 02:02:02;;;;;;;;;69.67;55.00;;;;;;;;5055356;28;45234;-74
2022/12/15 02:04:29;;;;;;;;;66.33;54.00;;;;;;;;5040336;28;46786;-73
2022/12/15 02:06:54;;;;;;;;;74.33;55.67;;;;;;;;5042530;28;47391;-73
2022/12/15 02:09:20;;;;;;;;;72.33;55.67;;;;;;;;5052267;28;45459;-73
2022/12/15 02:11:46;;;;;;;;;72.33;55.67;;;;;;;;5046372;28;45241;-74
2022/12/15 02:14:13;;;;;;;;;68.33;55.00;;;;;;;;5044216;28;45472;-74
2022/12/15 02:17:05;;;;;;;;;76.67;58.00;;;;;;;;5038125;28;48026;-73
2022/12/15 02:19:39;;;;;;;;;68.00;55.67;;;;;;;;5051347;28;45381;-74
2022/12/15 02:22:05;;;;;;;;;68.67;55.33;;;;;;;;5059389;28;45269;-74
2022/12/15 02:24:33;;;;;;;;;65.67;54.33;;;;;;;;5040760;28;46823;-73
2022/12/15 02:27:17;;;;;;;;;63.67;49.33;;;;;;;;5039428;28;45800;-73
2022/12/15 02:29:48;;;;;;;;;68.33;53.67;;;;;;;;5041540;28;45532;-73
2022/12/15 02:32:15;;;;;;;;;71.67;56.33;;;;;;;;5059013;28;44650;-73
2022/12/15 02:34:41;;;;;;;;;76.67;59.67;;;;;;;;5055284;28;45302;-74
2022/12/15 02:37:16;;;;;;;;;72.00;56.00;;;;;;;;5042195;28;47011;-73
2022/12/15 02:39:41;;;;;;;;;69.67;56.67;;;;;;;;5041353;28;45342;-74
2022/12/15 02:42:08;;;;;;;;;74.33;58.00;;;;;;;;5058454;28;45325;-73
2022/12/15 02:44:39;;;;;;;;;72.33;53.33;;;;;;;;5040364;28;45492;-73
2022/12/15 02:47:08;;;;;;;;;76.67;56.00;;;;;;;;5058361;28;45731;-73
2022/12/15 02:49:34;;;;;;;;;39.33;24.67;;;;;;;;5054205;28;45409;-73
2022/12/15 02:52:29;;;;;;;;;72.67;52.67;;;;;;;;5039454;28;45463;-73
2022/12/15 02:55:00;;;;;;;;;68.67;55.33;;;;;;;;5028992;28;45529;-74
2022/12/15 02:57:25;;;;;;;;;69.00;54.67;;;;;;;;5058041;28;45324;-74
2022/12/15 02:59:54;;;;;;;;;74.00;57.67;;;;;;;;5054759;28;45352;-74
2022/12/15 03:02:20;;;;;;;;;73.67;56.00;;;;;;;;5059248;28;45313;-74
2022/12/15 03:04:45;;;;;;;;;75.67;56.33;;;;;;;;5051180;28;45463;-73
2022/12/15 03:07:12;;;;;;;;;74.33;55.33;;;;;;;;5059710;28;46092;-74
2022/12/15 03:09:37;;;;;;;;;73.00;52.67;;;;;;;;5041191;28;45305;-74
2022/12/15 03:12:03;;;;;;;;;84.00;60.67;;;;;;;;5041655;28;45424;-73
2022/12/15 03:14:28;;;;;;;;;77.00;58.67;;;;;;;;5052363;28;45278;-74
2022/12/15 03:16:53;;;;;;;;;68.33;51.33;;;;;;;;5057940;28;45333;-74
2022/12/15 03:19:19;;;;;;;;;76.00;58.33;;;;;;;;5038284;28;45451;-74
2022/12/15 03:21:44;;;;;;;;;75.67;59.00;;;;;;;;5058750;28;45226;-74
2022/12/15 03:24:09;;;;;;;;;79.00;58.33;;;;;;;;5039036;28;45927;-74
2022/12/15 03:26:34;;;;;;;;;78.33;59.00;;;;;;;;5057155;28;46597;-74
2022/12/15 03:29:00;;;;;;;;;76.67;60.33;;;;;;;;5055532;28;45407;-74
2022/12/15 03:31:25;;;;;;;;;70.00;54.00;;;;;;;;5055327;28;45474;-74
2022/12/15 03:33:50;;;;;;;;;80.00;64.00;;;;;;;;5056207;28;45384;-74
2022/12/15 03:36:15;;;;;;;;;77.33;58.00;;;;;;;;5056176;28;45662;-74
2022/12/15 03:38:40;;;;;;;;;76.33;59.33;;;;;;;;5039338;28;45409;-74
2022/12/15 03:41:06;;;;;;;;;74.67;58.67;;;;;;;;5041013;28;45278;-74
2022/12/15 03:43:31;;;;;;;;;69.33;54.67;;;;;;;;5056270;28;45532;-74
2022/12/15 03:45:56;;;;;;;;;80.67;58.33;;;;;;;;5055359;28;46228;-74
2022/12/15 03:48:21;;;;;;;;;83.67;64.00;;;;;;;;5039120;28;45611;-74
2022/12/15 03:50:47;;;;;;;;;75.00;59.67;;;;;;;;5041141;28;45479;-74
2022/12/15 03:53:13;;;;;;;;;73.67;58.33;;;;;;;;5057107;28;46454;-74
2022/12/15 03:55:38;;;;;;;;;75.33;55.33;;;;;;;;5052703;28;46357;-75
2022/12/15 03:58:03;;;;;;;;;79.67;59.67;;;;;;;;5039573;28;46129;-74
2022/12/15 04:00:29;;;;;;;;;76.00;56.00;;;;;;;;5055486;28;45507;-74
2022/12/15 04:02:54;;;;;;;;;68.67;55.33;;;;;;;;5040886;28;45606;-74
2022/12/15 04:05:19;;;;;;;;;61.33;49.00;;;;;;;;5048345;28;45408;-74
2022/12/15 04:07:44;;;;;;;;;71.00;54.33;;;;;;;;5041921;28;45444;-74
2022/12/15 04:10:10;;;;;;;;;76.50;58.00;;;;;;;;5051166;28;44784;-74
2022/12/15 04:12:38;;;;;;;;;81.33;60.33;;;;;;;;5058390;28;45806;-74
2022/12/15 04:15:04;;;;;;;;;77.67;60.00;;;;;;;;5039102;28;46113;-74
2022/12/15 04:17:29;;;;;;;;;72.33;60.67;;;;;;;;5057751;28;45237;-74
2022/12/15 04:20:09;;;;;;;;;75.67;60.00;;;;;;;;5053557;28;45419;-75
2022/12/15 04:22:39;;;;;;;;;78.00;60.67;;;;;;;;5058352;28;45345;-74
2022/12/15 05:33:26;;;;;;;;;73.67;58.67;;;;;;;;5056022;28;45361;-76
2022/12/15 05:35:51;;;;;;;;;67.67;52.33;;;;;;;;5056027;28;45454;-74
2022/12/15 05:38:17;;;;;;;;;77.00;57.33;;;;;;;;5037815;28;46584;-76
2022/12/15 05:40:42;;;;;;;;;71.67;55.67;;;;;;;;5054533;28;45476;-75
2022/12/15 05:43:08;;;;;;;;;68.67;57.67;;;;;;;;5056075;28;45368;-75
2022/12/15 05:45:33;;;;;;;;;81.00;61.00;;;;;;;;5054629;28;45415;-75
2022/12/15 05:47:58;;;;;;;;;77.33;56.67;;;;;;;;5055107;28;45360;-75
2022/12/15 05:50:23;;;;;;;;;75.67;60.00;;;;;;;;5053220;28;46238;-75
2022/12/15 05:52:48;;;;;;;;;73.67;57.33;;;;;;;;5055223;28;44722;-73
2022/12/15 05:55:14;;;;;;;;;73.67;57.67;;;;;;;;5057275;28;45146;-75
2022/12/15 05:57:39;;;;;;;;;77.67;54.33;;;;;;;;5056904;28;45225;-74
2022/12/15 06:00:05;;;;;;;;;75.00;58.67;;;;;;;;5044598;28;45234;-74
2022/12/15 06:02:30;;;;;;;;;65.33;49.33;;;;;;;;5041761;28;44793;-75
2022/12/15 06:04:55;;;;;;;;;69.00;52.00;;;;;;;;5055783;28;45447;-74
2022/12/15 06:07:21;;;;;;;;;73.33;56.67;;;;;;;;5049185;28;45453;-74
2022/12/15 06:09:46;;;;;;;;;73.67;57.33;;;;;;;;5035425;28;48441;-74
2022/12/15 06:12:11;;;;;;;;;69.67;54.33;;;;;;;;5047425;28;45329;-74
2022/12/15 06:14:36;;;;;;;;;82.67;64.33;;;;;;;;5043362;28;45762;-73
2022/12/15 06:17:02;;;;;;;;;79.67;60.33;;;;;;;;5051688;28;45435;-73
2022/12/15 06:19:27;;;;;;;;;69.67;56.67;;;;;;;;5055535;28;45303;-75
2022/12/15 06:21:52;;;;;;;;;79.00;60.33;;;;;;;;5051578;28;45250;-74
2022/12/15 06:24:17;;;;;;;;;68.67;56.33;;;;;;;;5029750;28;45254;-74
2022/12/15 06:26:43;;;;;;;;;73.33;56.67;;;;;;;;5056008;28;45476;-74
2022/12/15 06:29:09;;;;;;;;;76.33;59.67;;;;;;;;5054102;28;45233;-74
2022/12/15 06:31:35;;;;;;;;;78.00;61.00;;;;;;;;5054755;28;45409;-74
2022/12/15 06:34:03;;;;;;;;;79.67;58.00;;;;;;;;5055821;28;45442;-74
2022/12/15 06:36:29;;;;;;;;;72.67;57.67;;;;;;;;5042296;28;45691;-74
2022/12/15 06:38:56;;;;;;;;;72.00;56.33;;;;;;;;5033224;28;46914;-74
2022/12/15 06:41:22;;;;;;;;;68.33;52.33;;;;;;;;5055712;28;45336;-75
2022/12/15 06:43:48;;;;;;;;;72.67;55.33;;;;;;;;5056834;28;45541;-74
2022/12/15 06:46:13;;;;;;;;;77.00;59.67;;;;;;;;5040392;28;46140;-74
2022/12/15 06:48:38;;;;;;;;;79.33;60.33;;;;;;;;5030977;28;47249;-74
2022/12/15 06:51:05;;;;;;;;;77.67;58.67;;;;;;;;5051765;28;45391;-74
2022/12/15 06:53:30;;;;;;;;;76.67;59.33;;;;;;;;5037927;28;45550;-74
2022/12/15 06:56:00;;;;;;;;;85.33;62.00;;;;;;;;5032513;28;45434;-74
2022/12/15 06:58:26;;;;;;;;;72.00;56.00;;;;;;;;5054114;28;45431;-74
2022/12/15 07:00:52;;;;;;;;;71.67;56.33;;;;;;;;5033244;28;45372;-74
2022/12/15 07:03:18;;;;;;;;;73.33;58.33;;;;;;;;5055976;28;45390;-74
2022/12/15 07:05:43;;;;;;;;;81.00;60.00;;;;;;;;5048690;28;45859;-74
2022/12/15 07:08:13;;;;;;;;;75.67;59.33;;;;;;;;5056008;28;45262;-75
2022/12/15 07:10:39;;;;;;;;;70.00;56.67;;;;;;;;5053236;28;45237;-74
2022/12/15 07:13:04;;;;;;;;;77.00;61.33;;;;;;;;5059115;28;45726;-74
2022/12/15 07:15:30;;;;;;;;;73.67;59.00;;;;;;;;5031074;28;46720;-73
2022/12/15 07:17:55;;;;;;;;;81.50;63.75;;;;;;;;5031867;28;46957;-74
2022/12/15 07:20:21;;;;;;;;;80.25;59.25;;;;;;;;5030231;28;45731;-74
2022/12/15 07:22:52;;;;;;;;;73.75;60.00;;;;;;;;5054217;28;45471;-74
2022/12/15 07:25:17;;;;;;;;;79.25;60.00;;;;;;;;5048559;28;45454;-75
2022/12/15 07:27:43;;;;;;;;;84.00;62.50;;;;;;;;5051029;28;46263;-75
2022/12/15 07:30:09;;;;;;;;;74.00;57.67;;;;;;;;5053917;28;45760;-75
2022/12/15 07:32:34;;;;;;;;;83.75;64.50;;;;;;;;5040453;28;45438;-74
2022/12/15 07:35:00;;;;;;;;;83.50;63.25;;;;;;;;5055252;28;45330;-74
2022/12/15 07:37:28;;;;;;;;;76.67;60.33;;;;;;;;5057659;28;45395;-74
2022/12/15 07:39:53;;;;;;;;;75.33;56.67;;;;;;;;5048308;28;45354;-74
2022/12/15 07:42:18;;;;;;;;;76.00;57.67;;;;;;;;5037653;28;45215;-74
2022/12/15 07:44:44;;;;;;;;;75.50;56.25;;;;;;;;5053064;28;45547;-74
2022/12/15 07:47:09;;;;;;;;;57.00;51.33;;;;;;;;5058494;28;45256;-74
2022/12/15 07:49:34;;;;;;;;;77.00;57.00;;;;;;;;5052605;28;45293;-74
2022/12/15 07:51:59;;;;;;;;;73.67;57.00;;;;;;;;5057204;28;45315;-75
2022/12/15 07:54:24;;;;;;;;;78.25;59.75;;;;;;;;5032048;28;45954;-75
2022/12/15 07:56:50;;;;;;;;;72.50;57.25;;;;;;;;5045458;28;45540;-76
2022/12/15 07:59:16;;;;;;;;;77.00;58.00;;;;;;;;5041803;28;45514;-76
2022/12/15 08:01:41;;;;;;;;;75.50;59.00;;;;;;;;5040070;28;45465;-76
2022/12/15 08:04:06;;;;;;;;;77.00;57.00;;;;;;;;5051639;28;45276;-76
2022/12/15 08:06:31;;;;;;;;;81.33;59.33;;;;;;;;5022954;28;46302;-76
2022/12/15 08:08:57;;;;;;;;;83.33;62.33;;;;;;;;5054913;28;45442;-76
2022/12/15 08:11:23;;;;;;;;;74.00;60.67;;;;;;;;5039633;28;45518;-73
2022/12/15 08:13:49;;;;;;;;;91.25;63.00;;;;;;;;5053432;28;45542;-73
2022/12/15 08:16:14;;;;;;;;;86.33;61.67;;;;;;;;5050035;28;45420;-73
2022/12/15 08:18:39;;;;;;;;;78.00;59.25;;;;;;;;5047160;28;45233;-76
2022/12/15 08:21:07;;;;;;;;;77.00;57.67;;;;;;;;5044456;28;45399;-76
2022/12/15 08:23:32;;;;;;;;;73.33;57.33;;;;;;;;5043181;28;45989;-76
2022/12/15 08:26:01;;;;;;;;;78.00;54.33;;;;;;;;5043119;28;45291;-76
2022/12/15 08:28:26;;;;;;;;;84.00;64.33;;;;;;;;5026811;28;45266;-76
2022/12/15 08:30:52;;;;;;;;;72.33;56.00;;;;;;;;5045101;28;45413;-76
2022/12/15 08:33:17;;;;;;;;;85.67;63.33;;;;;;;;5046620;28;45191;-74
2022/12/15 08:35:43;;;;;;;;;69.33;54.67;;;;;;;;5048782;28;45194;-76
2022/12/15 08:38:08;;;;;;;;;71.67;56.67;;;;;;;;5049843;28;45241;-76
2022/12/15 08:40:33;;;;;;;;;82.33;62.33;;;;;;;;5043817;28;45329;-75
2022/12/15 08:42:58;;;;;;;;;79.00;58.33;;;;;;;;5053262;28;45325;-76
2022/12/15 08:45:24;;;;;;;;;84.67;64.33;;;;;;;;5044610;28;46150;-75
2022/12/15 08:47:49;;;;;;;;;78.67;59.00;;;;;;;;5057865;28;45261;-76
2022/12/15 08:50:15;;;;;;;;;87.67;63.00;;;;;;;;5031849;28;45396;-76
2022/12/15 08:52:41;;;;;;;;;80.67;59.33;;;;;;;;5041032;28;44842;-75
2022/12/15 08:55:07;;;;;;;;;82.67;60.67;;;;;;;;5043134;28;45739;-76
2022/12/15 08:57:33;;;;;;;;;83.67;60.00;;;;;;;;5054621;28;45391;-76
2022/12/15 08:59:58;;;;;;;;;75.00;57.67;;;;;;;;5030458;28;45431;-76
2022/12/15 09:02:23;;;;;;;;;80.00;59.00;;;;;;;;5045613;28;45325;-76
2022/12/15 09:04:50;;;;;;;;;72.00;56.33;;;;;;;;5044893;28;45467;-76
2022/12/15 09:07:15;;;;;;;;;80.67;59.67;;;;;;;;5039103;28;45355;-75
2022/12/15 09:09:41;;;;;;;;;81.00;61.67;;;;;;;;5039357;28;45330;-76
2022/12/15 09:12:09;;;;;;;;;86.67;62.00;;;;;;;;5042539;28;45579;-76
2022/12/15 09:14:34;;;;;;;;;81.00;61.00;;;;;;;;5038281;28;45490;-76
2022/12/15 09:17:00;;;;;;;;;68.33;52.33;;;;;;;;5046869;28;45424;-76
2022/12/15 09:19:25;;;;;;;;;81.00;61.67;;;;;;;;5053048;28;45276;-76
2022/12/15 09:21:50;;;;;;;;;79.00;61.00;;;;;;;;5034777;28;45979;-76
2022/12/15 09:24:16;;;;;;;;;83.67;61.33;;;;;;;;5045878;28;45440;-76
2022/12/15 09:26:41;;;;;;;;;67.00;56.00;;;;;;;;5038159;28;45726;-76
2022/12/15 09:29:07;;;;;;;;;81.00;63.00;;;;;;;;5045400;28;45335;-75
2022/12/15 09:31:35;;;;;;;;;77.00;60.33;;;;;;;;5053024;28;45505;-76
2022/12/15 09:34:01;;;;;;;;;77.00;60.00;;;;;;;;5034437;28;47751;-76
2022/12/15 09:36:27;;;;;;;;;72.33;56.33;;;;;;;;5056207;28;45296;-76
2022/12/15 09:38:52;;;;;;;;;77.33;60.00;;;;;;;;5052414;28;45448;-76
2022/12/15 09:41:22;;;;;;;;;81.33;60.00;;;;;;;;5038669;28;45682;-76
2022/12/15 09:43:59;;;;;;;;;86.33;65.00;;;;;;;;5036590;28;45592;-76
2022/12/15 09:46:43;;;;;;;;;76.33;58.33;;;;;;;;5048960;28;45462;-76
2022/12/15 09:49:29;;;;;;;;;79.67;60.00;;;;;;;;5036231;28;45475;-76
2022/12/15 09:52:07;;;;;;;;;72.33;56.67;;;;;;;;5058862;28;45432;-76
2022/12/15 09:54:33;;;;;;;;;78.67;57.00;;;;;;;;5051509;28;45934;-76
2022/12/15 09:57:01;;;;;;;;;79.67;62.00;;;;;;;;5048539;28;45323;-75
2022/12/15 09:59:45;;;;;;;;;74.00;55.67;;;;;;;;5044006;28;45458;-76
2022/12/15 10:02:16;;;;;;;;;78.33;56.00;;;;;;;;5036881;28;45890;-76
2022/12/15 10:04:55;;;;;;;;;73.00;57.67;;;;;;;;5049482;28;45375;-76
2022/12/15 10:07:30;;;;;;;;;78.33;61.33;;;;;;;;5029962;28;45376;-76
2022/12/15 10:09:55;;;;;;;;;71.33;56.67;;;;;;;;5036816;28;45501;-77
2022/12/15 10:12:25;;;;;;;;;79.67;61.33;;;;;;;;5053656;28;45399;-77
2022/12/15 10:14:59;;;;;;;;;82.00;63.00;;;;;;;;5019657;28;45304;-76
2022/12/15 10:17:32;;;;;;;;;76.00;59.33;;;;;;;;5059518;28;45446;-77
2022/12/15 10:19:58;;;;;;;;;79.00;57.33;;;;;;;;5048668;28;45341;-77
2022/12/15 10:22:30;;;;;;;;;78.00;60.33;;;;;;;;5045575;28;44895;-76
2022/12/15 10:24:55;;;;;;;;;70.67;59.67;;;;;;;;5029154;28;45267;-76
2022/12/15 10:27:27;;;;;;;;;75.33;55.67;;;;;;;;5041305;28;45505;-76
2022/12/15 10:29:59;;;;;;;;;77.00;58.67;;;;;;;;5039725;28;44790;-77
2022/12/15 10:32:43;;;;;;;;;72.33;55.33;;;;;;;;5043057;28;45238;-77
2022/12/15 10:35:15;;;;;;;;;73.33;56.67;;;;;;;;5050304;28;45257;-76
2022/12/15 10:37:41;;;;;;;;;73.33;58.67;;;;;;;;5038515;28;45494;-76
2022/12/15 10:40:06;;;;;;;;;40.33;29.00;;;;;;;;5043117;28;45344;-77
2022/12/15 10:42:43;;;;;;;;;84.00;59.00;;;;;;;;5031864;28;45652;-77
2022/12/15 10:45:27;;;;;;;;;63.00;48.67;;;;;;;;5056221;28;46114;-76
2022/12/15 10:47:57;;;;;;;;;75.00;59.67;;;;;;;;5041125;28;45483;-71
2022/12/15 10:50:24;;;;;;;;;74.67;56.33;;;;;;;;5037590;28;45572;-72
2022/12/15 10:52:49;;;;;;;;;79.00;57.00;;;;;;;;5044437;28;45425;-72
2022/12/15 10:55:33;;;;;;;;;76.00;60.33;;;;;;;;5042956;28;45424;-72
2022/12/15 10:57:59;;;;;;;;;75.00;57.67;;;;;;;;5040549;28;45521;-72
2022/12/15 11:00:27;;;;;;;;;78.33;61.33;;;;;;;;5047305;28;45540;-75
2022/12/15 11:02:52;;;;;;;;;79.33;61.00;;;;;;;;5049863;28;45512;-74
2022/12/15 11:05:17;;;;;;;;;79.33;59.00;;;;;;;;5045444;28;45676;-75
2022/12/15 11:07:42;;;;;;;;;73.00;55.67;;;;;;;;5046360;28;45421;-75
2022/12/15 11:10:22;;;;;;;;;69.33;53.00;;;;;;;;5045107;28;45267;-74
2022/12/15 11:13:07;;;;;;;;;65.33;52.00;;;;;;;;5033212;28;45305;-75
2022/12/15 11:15:38;;;;;;;;;59.33;47.00;;;;;;;;5038137;28;46197;-75
2022/12/15 11:18:22;;;;;;;;;70.67;53.00;;;;;;;;5059379;28;45326;-76
2022/12/15 11:21:06;;;;;;;;;72.67;55.33;;;;;;;;5029684;28;45307;-76
2022/12/15 11:23:37;;;;;;;;;72.33;55.00;;;;;;;;5044533;28;45763;-76
2022/12/15 11:26:12;;;;;;;;;75.67;56.67;;;;;;;;5046750;28;46548;-76
2022/12/15 11:28:40;;;;;;;;;76.33;59.67;;;;;;;;5046672;28;45317;-76
2022/12/15 11:31:24;;;;;;;;;75.67;55.67;;;;;;;;5051213;28;45175;-75
2022/12/15 11:33:53;;;;;;;;;66.67;52.33;;;;;;;;5054561;28;45503;-75
2022/12/15 11:36:18;;;;;;;;;67.33;53.33;;;;;;;;5052103;28;45493;-75
2022/12/15 11:38:54;;;;;;;;;65.67;52.00;;;;;;;;5043430;28;45285;-75
2022/12/15 11:41:33;;;;;;;;;71.67;56.33;;;;;;;;5028168;28;45473;-75
2022/12/15 11:44:10;;;;;;;;;67.33;53.33;;;;;;;;5030108;28;45515;-75
2022/12/15 11:46:40;;;;;;;;;72.67;57.67;;;;;;;;5043136;28;45492;-75
2022/12/15 11:49:20;;;;;;;;;66.33;51.00;;;;;;;;5055932;28;45478;-76
2022/12/15 11:52:02;;;;;;;;;69.67;54.00;;;;;;;;5048837;28;45318;-75
2022/12/15 11:54:27;;;;;;;;;65.67;52.33;;;;;;;;5052257;28;45431;-75
2022/12/15 11:56:52;;;;;;;;;72.33;54.33;;;;;;;;5034842;28;48100;-75
2022/12/15 11:59:20;;;;;;;;;70.67;49.67;;;;;;;;5057038;28;45783;-76
2022/12/15 12:01:45;;;;;;;;;61.33;48.67;;;;;;;;5054408;28;45299;-75
2022/12/15 12:04:19;;;;;;;;;61.33;48.33;;;;;;;;5041961;28;45889;-77
2022/12/15 12:07:00;;;;;;;;;71.67;54.33;;;;;;;;5049058;28;45338;-76
2022/12/15 12:09:31;;;;;;;;;71.67;54.67;;;;;;;;5055834;28;45383;-75
2022/12/15 12:12:00;;;;;;;;;77.33;54.67;;;;;;;;5036761;28;45522;-76
2022/12/15 12:14:30;;;;;;;;;50.00;41.67;;;;;;;;5035657;28;45282;-76
2022/12/15 12:17:04;;;;;;;;;65.67;51.67;;;;;;;;5047649;28;45222;-76
2022/12/15 12:19:32;;;;;;;;;67.00;51.67;;;;;;;;5045502;28;45355;-75
2022/12/15 12:22:06;;;;;;;;;64.67;47.33;;;;;;;;5047120;28;45390;-75
2022/12/15 12:24:49;;;;;;;;;66.67;49.67;;;;;;;;5041182;28;45322;-75
2022/12/15 12:27:25;;;;;;;;;67.00;53.33;;;;;;;;5037567;28;48000;-74
2022/12/15 12:29:52;;;;;;;;;60.00;47.33;;;;;;;;5050374;28;45390;-75
2022/12/15 12:32:41;;;;;;;;;64.67;47.33;;;;;;;;5050354;28;45252;-75
2022/12/15 12:35:13;;;;;;;;;59.33;50.33;;;;;;;;5049311;28;45479;-75
2022/12/15 12:37:43;;;;;;;;;71.33;53.00;;;;;;;;5050623;28;46314;-75
2022/12/15 12:40:18;;;;;;;;;64.00;51.00;;;;;;;;5034596;28;45553;-75
2022/12/15 12:42:56;;;;;;;;;60.00;44.00;;;;;;;;5037869;28;45470;-75
2022/12/15 12:45:25;;;;;;;;;67.00;52.67;;;;;;;;5049831;28;45217;-75
2022/12/15 12:47:53;;;;;;;;;62.00;51.00;;;;;;;;5036456;28;46998;-76
2022/12/15 12:50:20;;;;;;;;;55.67;43.67;;;;;;;;5035208;28;45489;-75
2022/12/15 12:52:59;;;;;;;;;52.33;43.00;;;;;;;;5037745;28;44742;-75
2022/12/15 12:55:34;;;;;;;;;67.00;48.67;;;;;;;;5032956;28;45362;-74
2022/12/15 12:57:59;;;;;;;;;62.33;48.67;;;;;;;;5036900;28;45422;-76
2022/12/15 13:00:26;;;;;;;;;63.67;49.00;;;;;;;;5025314;28;45353;-75
2022/12/15 13:02:51;;;;;;;;;69.00;50.67;;;;;;;;5031498;28;45364;-75
2022/12/15 13:05:30;;;;;;;;;63.67;48.33;;;;;;;;5030452;28;45440;-74
2022/12/15 13:08:15;;;;;;;;;63.33;47.00;;;;;;;;5033534;28;46008;-73
2022/12/15 13:10:42;;;;;;;;;61.67;47.00;;;;;;;;5038718;28;45176;-75
2022/12/15 13:13:26;;;;;;;;;60.33;47.33;;;;;;;;5043072;28;45485;-76
2022/12/15 13:16:00;;;;;;;;;69.00;49.33;;;;;;;;5033900;28;45376;-76
2022/12/15 13:18:26;;;;;;;;;59.33;48.33;;;;;;;;5027738;28;46539;-74
2022/12/15 13:20:55;;;;;;;;;66.00;52.67;;;;;;;;5035072;28;45287;-75
2022/12/15 13:23:20;;;;;;;;;57.33;43.67;;;;;;;;5028727;28;45261;-75
2022/12/15 13:25:51;;;;;;;;;62.00;48.33;;;;;;;;5031191;28;45836;-75
2022/12/15 13:28:22;;;;;;;;;57.33;47.33;;;;;;;;5040032;28;46286;-76
2022/12/15 13:31:05;;;;;;;;;62.33;47.00;;;;;;;;5032229;28;45177;-75
2022/12/15 13:33:30;;;;;;;;;62.33;48.00;;;;;;;;5029690;28;45397;-76
2022/12/15 13:35:56;;;;;;;;;50.67;42.33;;;;;;;;5035311;28;45647;-75
2022/12/15 13:38:41;;;;;;;;;51.00;42.67;;;;;;;;5039499;28;45392;-76
2022/12/15 13:41:20;;;;;;;;;68.67;50.33;;;;;;;;5032405;28;45226;-76
2022/12/15 13:43:47;;;;;;;;;57.00;46.33;;;;;;;;5038728;28;45298;-76
2022/12/15 13:46:19;;;;;;;;;56.00;43.67;;;;;;;;5036060;28;45559;-76
2022/12/15 13:48:45;;;;;;;;;57.33;47.00;;;;;;;;5041191;28;45443;-74
2022/12/15 13:51:29;;;;;;;;;47.00;41.33;;;;;;;;5040258;28;45386;-75
2022/12/15 13:53:55;;;;;;;;;52.67;40.33;;;;;;;;5039492;28;45314;-75
2022/12/15 13:56:25;;;;;;;;;59.75;43.50;;;;;;;;5047918;28;45274;-74
2022/12/15 13:58:58;;;;;;;;;41.75;39.25;;;;;;;;5060334;28;45347;-76
2022/12/15 14:01:25;;;;;;;;;49.75;42.50;;;;;;;;5031574;28;46317;-75
2022/12/15 14:03:57;;;;;;;;;40.75;35.25;;;;;;;;5039159;28;45285;-74
2022/12/15 14:06:22;;;;;;;;;40.00;35.25;;;;;;;;5058493;28;45409;-74
2022/12/15 14:08:49;;;;;;;;;47.50;40.50;;;;;;;;5037709;28;46703;-74
2022/12/15 14:11:21;;;;;;;;;52.00;41.00;;;;;;;;5055610;28;45301;-73
2022/12/15 14:13:46;;;;;;;;;47.00;39.75;;;;;;;;5058674;28;45650;-75
2022/12/15 14:16:15;;;;;;;;;45.50;38.00;;;;;;;;5036774;28;45341;-74
2022/12/15 14:18:41;;;;;;;;;53.00;42.75;;;;;;;;5053796;28;45617;-74
2022/12/15 14:21:19;;;;;;;;;47.00;37.75;;;;;;;;5048075;28;45427;-75
2022/12/15 14:23:45;;;;;;;;;45.25;39.75;;;;;;;;5026152;28;45603;-76
2022/12/15 14:26:12;;;;;;;;;38.75;33.25;;;;;;;;5040109;28;45452;-74
2022/12/15 14:28:38;;;;;;;;;40.75;32.00;;;;;;;;5036514;28;45446;-76
2022/12/15 14:31:06;;;;;;;;;28.50;26.25;;;;;;;;5051681;28;45402;-75
2022/12/15 14:33:35;;;;;;;;;38.25;32.25;;;;;;;;5057264;28;45375;-76
2022/12/15 14:36:04;;;;;;;;;36.50;29.00;;;;;;;;5055680;28;44748;-75
2022/12/15 14:38:31;;;;;;;;;36.25;31.00;;;;;;;;5036540;28;45575;-75
2022/12/15 14:40:59;;;;;;;;;37.75;32.25;;;;;;;;5045861;28;44793;-75
2022/12/15 14:43:30;;;;;;;;;42.00;34.00;;;;;;;;5058851;28;45207;-75
2022/12/15 14:46:04;;;;;;;;;37.00;29.00;;;;;;;;5053161;28;45309;-74
2022/12/15 14:48:32;;;;;;;;;30.75;27.00;;;;;;;;5049528;28;45556;-74
2022/12/15 14:50:59;;;;;;;;;30.00;29.50;;;;;;;;5050999;28;45214;-75
2022/12/15 14:53:26;;;;;;;;;33.00;28.50;;;;;;;;5034985;28;45366;-74
2022/12/15 14:55:51;;;;;;;;;33.75;24.00;;;;;;;;5041640;28;45460;-74
2022/12/15 14:58:22;;;;;;;;;22.75;16.00;;;;;;;;5053179;28;45519;-74
2022/12/15 15:00:49;;;;;;;;;23.75;21.50;;;;;;;;5042886;28;45205;-76
2022/12/15 15:03:14;;;;;;;;;25.75;24.25;;;;;;;;5048765;28;45368;-75
2022/12/15 15:05:41;;;;;;;;;30.25;27.50;;;;;;;;5035151;28;45971;-75
2022/12/15 15:08:12;;;;;;;;;23.75;21.50;;;;;;;;5058785;28;45480;-76
2022/12/15 15:10:38;;;;;;;;;34.75;26.00;;;;;;;;5048330;28;45398;-76
2022/12/15 15:13:03;;;;;;;;;30.75;25.25;;;;;;;;5046600;28;45202;-75
2022/12/15 15:15:28;;;;;;;;;31.00;22.00;;;;;;;;5053328;28;45555;-75
2022/12/15 15:17:56;;;;;;;;;30.00;27.25;;;;;;;;5041449;28;47098;-75
2022/12/15 15:20:23;;;;;;;;;29.75;29.50;;;;;;;;5038765;28;45815;-75
2022/12/15 15:23:03;;;;;;;;;31.75;24.25;;;;;;;;5055114;28;45487;-75
2022/12/15 15:25:28;;;;;;;;;30.50;25.00;;;;;;;;5036155;28;46080;-75
2022/12/15 15:28:11;;;;;;;;;28.75;19.25;;;;;;;;5038173;28;46688;-75
2022/12/15 15:30:47;;;;;;;;;47.00;29.00;;;;;;;;5056135;28;45455;-75
2022/12/15 15:33:13;;;;;;;;;33.75;25.25;;;;;;;;5051379;28;45256;-75
2022/12/15 15:35:42;;;;;;;;;30.00;26.00;;;;;;;;5028886;28;47485;-76
2022/12/15 15:38:15;;;;;;;;;34.75;24.75;;;;;;;;5051354;28;45365;-75
2022/12/15 15:40:40;;;;;;;;;31.00;23.00;;;;;;;;5027387;28;45284;-75
2022/12/15 15:43:12;;;;;;;;;33.25;27.75;;;;;;;;5029272;28;45443;-75
2022/12/15 15:45:38;;;;;;;;;39.25;33.50;;;;;;;;5036512;28;46164;-76
2022/12/15 15:48:04;;;;;;;;;40.75;31.50;;;;;;;;5032335;28;48072;-75
2022/12/15 15:50:29;;;;;;;;;31.25;28.75;;;;;;;;5048217;28;45422;-75
2022/12/15 15:52:55;;;;;;;;;35.50;29.75;;;;;;;;5054051;28;45420;-75
2022/12/15 15:55:26;;;;;;;;;37.25;28.50;;;;;;;;5046108;28;45484;-77
2022/12/15 15:57:51;;;;;;;;;32.75;29.00;;;;;;;;5056063;28;45347;-74
2022/12/15 16:00:20;;;;;;;;;35.50;33.50;;;;;;;;5031110;28;45302;-76
2022/12/15 16:02:46;;;;;;;;;32.25;28.25;;;;;;;;5048158;28;44663;-75
2022/12/15 16:05:12;;;;;;;;;31.50;30.75;;;;;;;;5033296;28;46693;-75
2022/12/15 16:07:37;;;;;;;;;36.50;28.50;;;;;;;;5039795;28;45983;-77
2022/12/15 16:10:03;;;;;;;;;35.25;31.50;;;;;;;;5032425;28;46245;-76
2022/12/15 16:12:32;;;;;;;;;30.00;26.25;;;;;;;;5049914;28;45382;-77
2022/12/15 16:14:57;;;;;;;;;37.00;30.50;;;;;;;;5042878;28;45387;-76
2022/12/15 16:17:22;;;;;;;;;34.75;27.00;;;;;;;;5044599;28;46359;-76
2022/12/15 16:19:48;;;;;;;;;37.75;33.25;;;;;;;;5031629;28;45512;-77
2022/12/15 16:22:17;;;;;;;;;37.00;30.25;;;;;;;;5047828;28;45510;-78
2022/12/15 16:24:42;;;;;;;;;40.00;31.67;;;;;;;;5048835;28;45611;-75
2022/12/15 16:27:08;;;;;;;;;33.25;31.25;;;;;;;;5051980;28;45506;-76
2022/12/15 16:29:33;;;;;;;;;33.25;25.50;;;;;;;;5037049;28;45524;-76
2022/12/15 16:31:59;;;;;;;;;37.25;32.50;;;;;;;;5042600;28;45443;-77
2022/12/15 16:34:24;;;;;;;;;30.00;25.33;;;;;;;;5031684;28;45795;-77
2022/12/15 16:36:49;;;;;;;;;33.67;30.67;;;;;;;;5032504;28;46776;-76
2022/12/15 16:39:26;;;;;;;;;35.67;29.33;;;;;;;;5048442;28;45451;-76
2022/12/15 16:41:52;;;;;;;;;37.33;31.33;;;;;;;;5045968;28;45435;-76
2022/12/15 16:44:17;;;;;;;;;38.25;31.00;;;;;;;;5032338;28;46198;-77